sensor_id;sensor_type;location;lat;lon;timestamp;temperature;humidity
19646;DHT22;9971;52.446;13.452;2022-11-23T00:04:24;11.00;99.90
19646;DHT22;9971;52.446;13.452;2022-11-23T00:09:26;11.40;99.90
19646;DHT22;9971;52.446;13.452;2022-11-23T00:14:29;11.80;99.90
19646;DHT22;9971;52.446;13.452;2022-11-23T00:19:31;12.10;99.90
19646;DHT22;9971;52.446;13.452;2022-11-23T00:24:34;12.50;99.90
19646;DHT22;9971;52.446;13.452;2022-11-23T00:29:37;12.80;99.90
19646;DHT22;9971;52.446;13.452;2022-11-23T00:34:39;13.10;99.90
19646;DHT22;9971;52.446;13.452;2022-11-23T00:39:42;13.40;99.90
19646;DHT22;9971;52.446;13.452;2022-11-23T00:44:44;13.70;99.90
19646;DHT22;9971;52.446;13.452;2022-11-23T00:49:47;13.90;99.90
19646;DHT22;9971;52.446;13.452;2022-11-23T00:54:49;14.20;99.90
19646;DHT22;9971;52.446;13.452;2022-11-23T00:59:52;14.40;99.90
19646;DHT22;9971;52.446;13.452;2022-11-23T01:04:54;14.60;99.90
19646;DHT22;9971;52.446;13.452;2022-11-23T01:09:56;14.80;99.90
19646;DHT22;9971;52.446;13.452;2022-11-23T01:14:59;15.00;99.90
19646;DHT22;9971;52.446;13.452;2022-11-23T01:20:02;15.20;99.90
19646;DHT22;9971;52.446;13.452;2022-11-23T01:25:04;15.30;99.90
19646;DHT22;9971;52.446;13.452;2022-11-23T01:30:08;15.50;99.90
19646;DHT22;9971;52.446;13.452;2022-11-23T01:35:11;15.60;99.90
19646;DHT22;9971;52.446;13.452;2022-11-23T01:40:13;15.70;99.90
19646;DHT22;9971;52.446;13.452;2022-11-23T01:50:29;16.00;99.90
19646;DHT22;9971;52.446;13.452;2022-11-23T01:55:31;16.10;99.90
19646;DHT22;9971;52.446;13.452;2022-11-23T02:00:34;16.20;99.90
19646;DHT22;9971;52.446;13.452;2022-11-23T02:05:38;16.30;99.90
19646;DHT22;9971;52.446;13.452;2022-11-23T02:10:39;16.40;99.90
19646;DHT22;9971;52.446;13.452;2022-11-23T02:15:41;16.50;99.90
19646;DHT22;9971;52.446;13.452;2022-11-23T02:20:43;16.60;99.90
19646;DHT22;9971;52.446;13.452;2022-11-23T02:25:53;16.60;99.90
19646;DHT22;9971;52.446;13.452;2022-11-23T02:30:52;16.70;99.90
19646;DHT22;9971;52.446;13.452;2022-11-23T02:35:55;16.80;99.90
19646;DHT22;9971;52.446;13.452;2022-11-23T02:40:56;16.80;99.90
19646;DHT22;9971;52.446;13.452;2022-11-23T02:45:58;16.90;99.90
19646;DHT22;9971;52.446;13.452;2022-11-23T02:51:00;17.00;99.90
19646;DHT22;9971;52.446;13.452;2022-11-23T02:56:03;17.00;99.90
19646;DHT22;9971;52.446;13.452;2022-11-23T03:01:06;17.10;99.90
19646;DHT22;9971;52.446;13.452;2022-11-23T03:06:08;17.10;99.90
19646;DHT22;9971;52.446;13.452;2022-11-23T03:11:11;17.20;99.90
19646;DHT22;9971;52.446;13.452;2022-11-23T03:16:14;17.20;99.90
19646;DHT22;9971;52.446;13.452;2022-11-23T03:21:16;17.20;99.90
19646;DHT22;9971;52.446;13.452;2022-11-23T03:26:18;17.30;99.90
19646;DHT22;9971;52.446;13.452;2022-11-23T03:31:20;17.30;99.90
19646;DHT22;9971;52.446;13.452;2022-11-23T03:36:22;17.40;99.90
19646;DHT22;9971;52.446;13.452;2022-11-23T03:41:25;17.40;99.90
19646;DHT22;9971;52.446;13.452;2022-11-23T03:46:27;17.40;99.90
19646;DHT22;9971;52.446;13.452;2022-11-23T03:51:30;17.50;99.90
19646;DHT22;9971;52.446;13.452;2022-11-23T03:56:32;17.50;99.90
19646;DHT22;9971;52.446;13.452;2022-11-23T04:01:35;17.50;99.90
19646;DHT22;9971;52.446;13.452;2022-11-23T04:06:37;17.50;99.90
19646;DHT22;9971;52.446;13.452;2022-11-23T04:11:40;17.50;99.90
19646;DHT22;9971;52.446;13.452;2022-11-23T04:16:43;17.60;99.90
19646;DHT22;9971;52.446;13.452;2022-11-23T04:21:45;17.60;99.90
19646;DHT22;9971;52.446;13.452;2022-11-23T04:26:47;17.60;99.90
19646;DHT22;9971;52.446;13.452;2022-11-23T04:31:50;17.60;99.90
19646;DHT22;9971;52.446;13.452;2022-11-23T04:36:52;17.60;99.90
19646;DHT22;9971;52.446;13.452;2022-11-23T04:41:55;17.60;99.90
19646;DHT22;9971;52.446;13.452;2022-11-23T04:46:57;17.70;99.90
19646;DHT22;9971;52.446;13.452;2022-11-23T04:52:00;17.70;99.90
19646;DHT22;9971;52.446;13.452;2022-11-23T04:57:02;17.70;99.90
19646;DHT22;9971;52.446;13.452;2022-11-23T05:02:05;17.70;99.90
19646;DHT22;9971;52.446;13.452;2022-11-23T05:07:07;17.70;99.90
19646;DHT22;9971;52.446;13.452;2022-11-23T05:12:09;17.70;99.90
19646;DHT22;9971;52.446;13.452;2022-11-23T05:17:12;17.70;99.90
19646;DHT22;9971;52.446;13.452;2022-11-23T05:22:14;17.70;99.90
19646;DHT22;9971;52.446;13.452;2022-11-23T05:27:17;17.80;99.90
19646;DHT22;9971;52.446;13.452;2022-11-23T05:32:19;17.70;99.90
19646;DHT22;9971;52.446;13.452;2022-11-23T05:37:22;17.80;99.90
19646;DHT22;9971;52.446;13.452;2022-11-23T05:42:25;17.80;99.90
19646;DHT22;9971;52.446;13.452;2022-11-23T05:47:27;17.80;99.90
19646;DHT22;9971;52.446;13.452;2022-11-23T05:52:30;17.80;99.90
19646;DHT22;9971;52.446;13.452;2022-11-23T05:57:32;17.90;99.90
19646;DHT22;9971;52.446;13.452;2022-11-23T06:02:35;17.80;99.90
19646;DHT22;9971;52.446;13.452;2022-11-23T06:07:37;17.80;99.90
19646;DHT22;9971;52.446;13.452;2022-11-23T06:12:39;17.90;99.90
19646;DHT22;9971;52.446;13.452;2022-11-23T06:17:42;17.90;99.90
19646;DHT22;9971;52.446;13.452;2022-11-23T06:22:50;17.90;99.90
19646;DHT22;9971;52.446;13.452;2022-11-23T06:27:54;17.90;99.90
19646;DHT22;9971;52.446;13.452;2022-11-23T06:32:55;17.90;99.90
19646;DHT22;9971;52.446;13.452;2022-11-23T06:37:58;18.00;99.90
19646;DHT22;9971;52.446;13.452;2022-11-23T06:43:00;18.00;99.90
19646;DHT22;9971;52.446;13.452;2022-11-23T06:48:03;18.00;99.90
19646;DHT22;9971;52.446;13.452;2022-11-23T06:53:05;18.00;99.90
19646;DHT22;9971;52.446;13.452;2022-11-23T06:58:07;18.10;99.90
19646;DHT22;9971;52.446;13.452;2022-11-23T07:03:14;18.00;99.90
19646;DHT22;9971;52.446;13.452;2022-11-23T07:08:12;18.10;99.90
19646;DHT22;9971;52.446;13.452;2022-11-23T07:13:14;18.10;99.90
19646;DHT22;9971;52.446;13.452;2022-11-23T07:18:16;18.10;99.90
19646;DHT22;9971;52.446;13.452;2022-11-23T07:23:19;18.10;99.90
19646;DHT22;9971;52.446;13.452;2022-11-23T07:28:21;18.10;99.90
19646;DHT22;9971;52.446;13.452;2022-11-23T07:33:23;18.10;99.90
19646;DHT22;9971;52.446;13.452;2022-11-23T07:38:26;18.10;99.90
19646;DHT22;9971;52.446;13.452;2022-11-23T07:43:29;18.20;99.90
19646;DHT22;9971;52.446;13.452;2022-11-23T07:48:31;18.20;99.90
19646;DHT22;9971;52.446;13.452;2022-11-23T07:53:33;18.20;99.90
19646;DHT22;9971;52.446;13.452;2022-11-23T07:58:35;18.20;99.90
19646;DHT22;9971;52.446;13.452;2022-11-23T08:03:38;18.30;99.90
19646;DHT22;9971;52.446;13.452;2022-11-23T08:08:41;18.20;99.90
19646;DHT22;9971;52.446;13.452;2022-11-23T08:13:43;18.20;99.90
19646;DHT22;9971;52.446;13.452;2022-11-23T08:18:45;18.30;99.90
19646;DHT22;9971;52.446;13.452;2022-11-23T08:23:48;18.20;99.90
19646;DHT22;9971;52.446;13.452;2022-11-23T08:28:50;18.20;99.90
19646;DHT22;9971;52.446;13.452;2022-11-23T08:33:53;18.20;99.90
19646;DHT22;9971;52.446;13.452;2022-11-23T08:38:56;18.20;99.90
19646;DHT22;9971;52.446;13.452;2022-11-23T08:43:58;18.30;99.90
19646;DHT22;9971;52.446;13.452;2022-11-23T08:49:01;18.20;99.90
19646;DHT22;9971;52.446;13.452;2022-11-23T08:54:04;18.30;99.90
19646;DHT22;9971;52.446;13.452;2022-11-23T08:59:07;18.30;99.90
19646;DHT22;9971;52.446;13.452;2022-11-23T09:04:08;18.30;99.90
19646;DHT22;9971;52.446;13.452;2022-11-23T09:09:11;18.30;99.90
19646;DHT22;9971;52.446;13.452;2022-11-23T09:14:14;18.30;99.90
19646;DHT22;9971;52.446;13.452;2022-11-23T09:19:17;18.30;99.90
19646;DHT22;9971;52.446;13.452;2022-11-23T09:24:20;18.30;99.90
19646;DHT22;9971;52.446;13.452;2022-11-23T09:29:22;18.30;99.90
19646;DHT22;9971;52.446;13.452;2022-11-23T09:34:25;18.30;99.90
19646;DHT22;9971;52.446;13.452;2022-11-23T09:39:27;18.40;99.90
19646;DHT22;9971;52.446;13.452;2022-11-23T09:44:40;18.40;99.90
19646;DHT22;9971;52.446;13.452;2022-11-23T09:54:46;18.40;99.90
19646;DHT22;9971;52.446;13.452;2022-11-23T09:59:52;18.40;99.90
19646;DHT22;9971;52.446;13.452;2022-11-23T10:04:53;18.40;99.90
19646;DHT22;9971;52.446;13.452;2022-11-23T10:10:06;18.40;99.90
19646;DHT22;9971;52.446;13.452;2022-11-23T10:15:11;18.50;99.90
19646;DHT22;9971;52.446;13.452;2022-11-23T10:20:35;18.50;99.90
19646;DHT22;9971;52.446;13.452;2022-11-23T10:25:36;18.50;99.90
19646;DHT22;9971;52.446;13.452;2022-11-23T10:30:35;18.50;99.90
19646;DHT22;9971;52.446;13.452;2022-11-23T10:35:38;12.80;99.90
19646;DHT22;9971;52.446;13.452;2022-11-23T10:45:48;8.60;99.90
19646;DHT22;9971;52.446;13.452;2022-11-23T10:50:51;8.50;99.90
19646;DHT22;9971;52.446;13.452;2022-11-23T10:55:54;9.00;99.90
19646;DHT22;9971;52.446;13.452;2022-11-23T11:01:00;9.80;99.90
19646;DHT22;9971;52.446;13.452;2022-11-23T11:06:01;10.70;99.90
19646;DHT22;9971;52.446;13.452;2022-11-23T11:11:07;11.40;99.90
19646;DHT22;9971;52.446;13.452;2022-11-23T11:16:21;12.00;99.90
19646;DHT22;9971;52.446;13.452;2022-11-23T11:21:29;12.60;99.90
19646;DHT22;9971;52.446;13.452;2022-11-23T11:26:26;13.20;99.90
19646;DHT22;9971;52.446;13.452;2022-11-23T11:31:42;13.60;99.90
19646;DHT22;9971;52.446;13.452;2022-11-23T11:36:44;13.90;99.90
19646;DHT22;9971;52.446;13.452;2022-11-23T11:41:44;14.30;99.90
19646;DHT22;9971;52.446;13.452;2022-11-23T11:46:50;14.60;99.90
19646;DHT22;9971;52.446;13.452;2022-11-23T11:51:52;14.90;99.90
19646;DHT22;9971;52.446;13.452;2022-11-23T11:56:54;15.20;99.90
19646;DHT22;9971;52.446;13.452;2022-11-23T12:01:58;15.40;99.90
19646;DHT22;9971;52.446;13.452;2022-11-23T12:07:17;15.60;99.90
19646;DHT22;9971;52.446;13.452;2022-11-23T12:12:18;15.80;99.90
19646;DHT22;9971;52.446;13.452;2022-11-23T12:22:44;16.20;99.90
19646;DHT22;9971;52.446;13.452;2022-11-23T12:27:53;16.40;99.90
19646;DHT22;9971;52.446;13.452;2022-11-23T12:33:03;16.50;99.90
19646;DHT22;9971;52.446;13.452;2022-11-23T12:38:08;16.60;99.90
19646;DHT22;9971;52.446;13.452;2022-11-23T12:43:20;16.80;99.90
19646;DHT22;9971;52.446;13.452;2022-11-23T12:48:31;16.90;99.90
19646;DHT22;9971;52.446;13.452;2022-11-23T12:53:46;17.00;99.90
19646;DHT22;9971;52.446;13.452;2022-11-23T12:58:46;17.20;99.90
19646;DHT22;9971;52.446;13.452;2022-11-23T13:04:12;17.30;99.90
19646;DHT22;9971;52.446;13.452;2022-11-23T13:09:38;17.30;99.90
19646;DHT22;9971;52.446;13.452;2022-11-23T13:14:41;17.50;99.90
19646;DHT22;9971;52.446;13.452;2022-11-23T13:19:49;17.60;99.90
19646;DHT22;9971;52.446;13.452;2022-11-23T13:25:01;17.60;99.90
19646;DHT22;9971;52.446;13.452;2022-11-23T13:30:06;17.70;99.90
19646;DHT22;9971;52.446;13.452;2022-11-23T13:40:45;17.80;99.90
19646;DHT22;9971;52.446;13.452;2022-11-23T13:50:56;18.00;99.90
19646;DHT22;9971;52.446;13.452;2022-11-23T13:55:59;18.00;99.90
19646;DHT22;9971;52.446;13.452;2022-11-23T14:00:59;18.10;99.90
19646;DHT22;9971;52.446;13.452;2022-11-23T14:06:01;18.10;99.90
19646;DHT22;9971;52.446;13.452;2022-11-23T14:11:13;18.10;99.90
19646;DHT22;9971;52.446;13.452;2022-11-23T14:16:13;18.20;99.90
19646;DHT22;9971;52.446;13.452;2022-11-23T14:21:21;18.20;99.90
19646;DHT22;9971;52.446;13.452;2022-11-23T14:26:32;18.30;99.90
19646;DHT22;9971;52.446;13.452;2022-11-23T14:42:00;18.40;99.90
19646;DHT22;9971;52.446;13.452;2022-11-23T14:47:03;18.50;99.90
19646;DHT22;9971;52.446;13.452;2022-11-23T14:52:04;18.50;99.90
19646;DHT22;9971;52.446;13.452;2022-11-23T14:57:06;18.50;99.90
19646;DHT22;9971;52.446;13.452;2022-11-23T15:02:16;18.60;99.90
19646;DHT22;9971;52.446;13.452;2022-11-23T15:07:21;18.60;99.90
19646;DHT22;9971;52.446;13.452;2022-11-23T15:12:25;16.80;99.90
19646;DHT22;9971;52.446;13.452;2022-11-23T15:17:27;10.70;99.90
19646;DHT22;9971;52.446;13.452;2022-11-23T15:22:29;9.00;99.90
19646;DHT22;9971;52.446;13.452;2022-11-23T15:27:31;8.40;99.90
19646;DHT22;9971;52.446;13.452;2022-11-23T15:32:34;8.00;99.90
19646;DHT22;9971;52.446;13.452;2022-11-23T15:37:39;7.80;99.90
19646;DHT22;9971;52.446;13.452;2022-11-23T15:42:38;7.60;99.90
19646;DHT22;9971;52.446;13.452;2022-11-23T15:47:41;7.40;99.90
19646;DHT22;9971;52.446;13.452;2022-11-23T15:52:43;7.30;99.90
19646;DHT22;9971;52.446;13.452;2022-11-23T15:57:46;7.20;99.90
19646;DHT22;9971;52.446;13.452;2022-11-23T16:02:47;7.20;99.90
19646;DHT22;9971;52.446;13.452;2022-11-23T16:07:53;7.20;99.90
19646;DHT22;9971;52.446;13.452;2022-11-23T16:12:56;7.10;99.90
19646;DHT22;9971;52.446;13.452;2022-11-23T16:17:57;7.00;99.90
19646;DHT22;9971;52.446;13.452;2022-11-23T16:22:59;6.90;99.90
19646;DHT22;9971;52.446;13.452;2022-11-23T16:28:04;6.80;99.90
19646;DHT22;9971;52.446;13.452;2022-11-23T16:33:05;6.70;99.90
19646;DHT22;9971;52.446;13.452;2022-11-23T16:38:07;6.60;99.90
19646;DHT22;9971;52.446;13.452;2022-11-23T16:43:10;6.50;99.90
19646;DHT22;9971;52.446;13.452;2022-11-23T16:48:50;6.50;99.90
19646;DHT22;9971;52.446;13.452;2022-11-23T16:53:35;6.30;99.90
19646;DHT22;9971;52.446;13.452;2022-11-23T16:58:37;6.10;99.90
19646;DHT22;9971;52.446;13.452;2022-11-23T17:03:40;6.00;99.90
19646;DHT22;9971;52.446;13.452;2022-11-23T17:08:43;5.90;99.90
19646;DHT22;9971;52.446;13.452;2022-11-23T17:13:45;5.80;99.90
19646;DHT22;9971;52.446;13.452;2022-11-23T17:18:47;6.50;99.90
19646;DHT22;9971;52.446;13.452;2022-11-23T17:23:49;7.50;99.90
19646;DHT22;9971;52.446;13.452;2022-11-23T17:28:51;8.40;99.90
19646;DHT22;9971;52.446;13.452;2022-11-23T17:33:54;9.20;99.90
19646;DHT22;9971;52.446;13.452;2022-11-23T17:38:56;9.80;99.90
19646;DHT22;9971;52.446;13.452;2022-11-23T17:43:58;10.40;99.90
19646;DHT22;9971;52.446;13.452;2022-11-23T17:49:01;11.00;99.90
19646;DHT22;9971;52.446;13.452;2022-11-23T17:54:03;11.40;99.90
19646;DHT22;9971;52.446;13.452;2022-11-23T17:59:06;11.80;99.90
19646;DHT22;9971;52.446;13.452;2022-11-23T18:04:08;12.30;99.90
19646;DHT22;9971;52.446;13.452;2022-11-23T18:09:11;12.60;99.90
19646;DHT22;9971;52.446;13.452;2022-11-23T18:14:13;12.90;99.90
19646;DHT22;9971;52.446;13.452;2022-11-23T18:19:16;13.10;99.90
19646;DHT22;9971;52.446;13.452;2022-11-23T18:24:18;13.40;99.90
19646;DHT22;9971;52.446;13.452;2022-11-23T18:29:21;13.70;99.90
19646;DHT22;9971;52.446;13.452;2022-11-23T18:34:23;13.90;99.90
19646;DHT22;9971;52.446;13.452;2022-11-23T18:39:26;14.10;99.90
19646;DHT22;9971;52.446;13.452;2022-11-23T18:44:28;14.30;99.90
19646;DHT22;9971;52.446;13.452;2022-11-23T18:49:31;14.50;99.90
19646;DHT22;9971;52.446;13.452;2022-11-23T18:54:33;14.70;99.90
19646;DHT22;9971;52.446;13.452;2022-11-23T18:59:35;14.90;99.90
19646;DHT22;9971;52.446;13.452;2022-11-23T19:04:38;15.00;99.90
19646;DHT22;9971;52.446;13.452;2022-11-23T19:09:40;15.20;99.90
19646;DHT22;9971;52.446;13.452;2022-11-23T19:14:43;15.40;99.90
19646;DHT22;9971;52.446;13.452;2022-11-23T19:19:45;15.50;99.90
19646;DHT22;9971;52.446;13.452;2022-11-23T19:24:47;15.60;99.90
19646;DHT22;9971;52.446;13.452;2022-11-23T19:29:50;15.70;99.90
19646;DHT22;9971;52.446;13.452;2022-11-23T19:34:52;15.80;99.90
19646;DHT22;9971;52.446;13.452;2022-11-23T19:39:55;15.90;99.90
19646;DHT22;9971;52.446;13.452;2022-11-23T19:44:57;16.00;99.90
19646;DHT22;9971;52.446;13.452;2022-11-23T19:50:00;16.10;99.90
19646;DHT22;9971;52.446;13.452;2022-11-23T19:55:02;16.20;99.90
19646;DHT22;9971;52.446;13.452;2022-11-23T20:00:05;16.30;99.90
19646;DHT22;9971;52.446;13.452;2022-11-23T20:05:07;16.40;99.90
19646;DHT22;9971;52.446;13.452;2022-11-23T20:10:10;16.50;99.90
19646;DHT22;9971;52.446;13.452;2022-11-23T20:15:12;16.50;99.90
19646;DHT22;9971;52.446;13.452;2022-11-23T20:20:15;16.60;99.90
19646;DHT22;9971;52.446;13.452;2022-11-23T20:25:17;16.60;99.90
19646;DHT22;9971;52.446;13.452;2022-11-23T20:30:20;16.70;99.90
19646;DHT22;9971;52.446;13.452;2022-11-23T20:35:22;16.70;99.90
19646;DHT22;9971;52.446;13.452;2022-11-23T20:40:25;16.80;99.90
19646;DHT22;9971;52.446;13.452;2022-11-23T20:45:27;16.80;99.90
19646;DHT22;9971;52.446;13.452;2022-11-23T20:50:29;16.80;99.90
19646;DHT22;9971;52.446;13.452;2022-11-23T20:55:31;16.90;99.90
19646;DHT22;9971;52.446;13.452;2022-11-23T21:00:34;16.90;99.90
19646;DHT22;9971;52.446;13.452;2022-11-23T21:05:37;17.00;99.90
19646;DHT22;9971;52.446;13.452;2022-11-23T21:10:39;17.00;99.90
19646;DHT22;9971;52.446;13.452;2022-11-23T21:15:47;17.00;99.90
19646;DHT22;9971;52.446;13.452;2022-11-23T21:20:52;17.10;99.90
19646;DHT22;9971;52.446;13.452;2022-11-23T21:25:52;17.10;99.90
19646;DHT22;9971;52.446;13.452;2022-11-23T21:30:54;17.10;99.90
19646;DHT22;9971;52.446;13.452;2022-11-23T21:35:59;17.20;99.90
19646;DHT22;9971;52.446;13.452;2022-11-23T21:40:59;17.20;99.90
19646;DHT22;9971;52.446;13.452;2022-11-23T21:46:02;17.20;99.90
19646;DHT22;9971;52.446;13.452;2022-11-23T21:51:07;17.20;99.90
19646;DHT22;9971;52.446;13.452;2022-11-23T21:56:12;17.30;99.90
19646;DHT22;9971;52.446;13.452;2022-11-23T22:01:14;17.30;99.90
19646;DHT22;9971;52.446;13.452;2022-11-23T22:06:16;17.30;99.90
19646;DHT22;9971;52.446;13.452;2022-11-23T22:11:19;17.30;99.90
19646;DHT22;9971;52.446;13.452;2022-11-23T22:16:21;17.30;99.90
19646;DHT22;9971;52.446;13.452;2022-11-23T22:21:23;17.30;99.90
19646;DHT22;9971;52.446;13.452;2022-11-23T22:26:24;17.30;99.90
19646;DHT22;9971;52.446;13.452;2022-11-23T22:31:26;17.30;99.90
19646;DHT22;9971;52.446;13.452;2022-11-23T22:36:28;17.30;99.90
19646;DHT22;9971;52.446;13.452;2022-11-23T22:41:30;17.30;99.90
19646;DHT22;9971;52.446;13.452;2022-11-23T22:46:35;17.30;99.90
19646;DHT22;9971;52.446;13.452;2022-11-23T22:51:37;17.30;99.90
19646;DHT22;9971;52.446;13.452;2022-11-23T22:56:39;17.30;99.90
19646;DHT22;9971;52.446;13.452;2022-11-23T23:26:42;7.10;99.90
19646;DHT22;9971;52.446;13.452;2022-11-23T23:31:45;11.20;99.90
19646;DHT22;9971;52.446;13.452;2022-11-23T23:36:47;11.70;99.90
19646;DHT22;9971;52.446;13.452;2022-11-23T23:41:50;12.20;99.90
19646;DHT22;9971;52.446;13.452;2022-11-23T23:46:52;12.60;99.90
19646;DHT22;9971;52.446;13.452;2022-11-23T23:51:55;12.90;99.90
19646;DHT22;9971;52.446;13.452;2022-11-23T23:56:57;13.20;99.90
